createdAt,value
2023-03-20T00:01:56.684Z,100.00
2023-03-20T00:04:23.432Z,100.00
2023-03-20T00:06:51.288Z,100.00
2023-03-20T00:09:18.161Z,100.00
2023-03-20T00:11:49.606Z,100.00
2023-03-20T00:14:19.368Z,100.00
2023-03-20T00:16:48.180Z,100.00
2023-03-20T00:19:20.815Z,100.00
2023-03-20T00:21:48.058Z,100.00
2023-03-20T00:24:16.589Z,100.00
2023-03-20T00:26:45.003Z,100.00
2023-03-20T00:29:27.731Z,100.00
2023-03-20T00:31:55.446Z,100.00
2023-03-20T00:34:25.844Z,100.00
2023-03-20T00:36:53.440Z,100.00
2023-03-20T00:39:20.382Z,100.00
2023-03-20T00:42:00.329Z,100.00
2023-03-20T00:44:33.161Z,100.00
2023-03-20T00:47:03.282Z,100.00
2023-03-20T00:49:35.410Z,100.00
2023-03-20T00:52:03.695Z,100.00
2023-03-20T00:54:31.302Z,100.00
2023-03-20T00:57:04.173Z,100.00
2023-03-20T00:59:38.810Z,100.00
2023-03-20T01:02:06.364Z,100.00
2023-03-20T01:04:39.461Z,100.00
2023-03-20T01:07:08.102Z,100.00
2023-03-20T01:09:34.771Z,100.00
2023-03-20T01:12:02.471Z,100.00
2023-03-20T01:14:29.211Z,100.00
2023-03-20T01:16:56.165Z,100.00
2023-03-20T01:19:22.956Z,100.00
2023-03-20T01:21:49.731Z,100.00
2023-03-20T01:24:16.676Z,100.00
2023-03-20T01:26:45.874Z,100.00
2023-03-20T01:29:20.133Z,100.00
2023-03-20T01:31:47.199Z,100.00
2023-03-20T01:34:16.340Z,100.00
2023-03-20T01:36:50.988Z,100.00
2023-03-20T01:39:19.294Z,100.00
2023-03-20T01:41:47.256Z,100.00
2023-03-20T01:44:22.375Z,100.00
2023-03-20T01:46:52.059Z,100.00
2023-03-20T01:49:21.727Z,100.00
2023-03-20T01:51:49.719Z,100.00
2023-03-20T01:54:38.493Z,100.00
2023-03-20T01:57:17.350Z,100.00
2023-03-20T02:00:16.961Z,100.00
2023-03-20T02:02:47.181Z,100.00
2023-03-20T02:05:17.857Z,100.00
2023-03-20T02:07:51.149Z,100.00
2023-03-20T02:10:19.084Z,100.00
2023-03-20T02:12:47.514Z,100.00
2023-03-20T02:15:16.913Z,100.00
2023-03-20T02:17:43.767Z,100.00
2023-03-20T02:20:38.067Z,100.00
2023-03-20T02:23:34.724Z,100.00
2023-03-20T02:26:14.789Z,100.00
2023-03-20T02:28:53.906Z,100.00
2023-03-20T02:31:58.047Z,100.00
2023-03-20T02:34:40.701Z,100.00
2023-03-20T02:37:45.019Z,100.00
2023-03-20T02:40:22.993Z,100.00
2023-03-20T02:42:52.510Z,100.00
2023-03-20T02:45:27.899Z,100.00
2023-03-20T02:48:06.618Z,100.00
2023-03-20T02:50:56.434Z,100.00
2023-03-20T02:53:36.326Z,100.00
2023-03-20T02:56:08.664Z,100.00
2023-03-20T02:58:51.265Z,100.00
2023-03-20T03:01:24.811Z,100.00
2023-03-20T03:03:57.404Z,100.00
2023-03-20T03:06:29.742Z,100.00
2023-03-20T03:09:03.202Z,100.00
2023-03-20T03:11:34.204Z,100.00
2023-03-20T03:14:02.020Z,100.00
2023-03-20T03:16:33.035Z,100.00
2023-03-20T03:19:05.451Z,100.00
2023-03-20T03:21:34.913Z,100.00
2023-03-20T03:24:02.740Z,100.00
2023-03-20T03:26:34.718Z,100.00
2023-03-20T03:29:06.899Z,100.00
2023-03-20T03:31:33.522Z,100.00
2023-03-20T03:34:01.623Z,100.00
2023-03-20T03:36:49.609Z,100.00
2023-03-20T03:39:46.547Z,100.00
2023-03-20T03:42:34.046Z,100.00
2023-03-20T03:45:08.867Z,100.00
2023-03-20T03:47:40.254Z,100.00
2023-03-20T03:50:30.066Z,100.00
2023-03-20T03:53:01.538Z,100.00
2023-03-20T03:55:35.041Z,100.00
2023-03-20T03:58:08.410Z,100.00
2023-03-20T04:00:36.080Z,100.00
2023-03-20T04:03:06.221Z,100.00
2023-03-20T04:05:37.692Z,100.00
2023-03-20T04:08:06.415Z,100.00
2023-03-20T04:10:33.648Z,100.00
2023-03-20T04:13:02.608Z,100.00
2023-03-20T04:15:29.352Z,100.00
2023-03-20T04:17:56.048Z,100.00
2023-03-20T04:20:23.103Z,100.00
2023-03-20T04:22:49.832Z,100.00
2023-03-20T04:25:23.402Z,100.00
2023-03-20T04:27:50.484Z,100.00
2023-03-20T04:30:17.480Z,100.00
2023-03-20T04:32:44.133Z,100.00
2023-03-20T04:35:10.802Z,100.00
2023-03-20T04:37:37.623Z,100.00
2023-03-20T04:40:04.694Z,100.00
2023-03-20T04:42:31.371Z,100.00
2023-03-20T04:44:58.098Z,100.00
2023-03-20T04:47:24.874Z,100.00
2023-03-20T04:49:51.619Z,100.00
2023-03-20T04:52:18.380Z,100.00
2023-03-20T04:54:45.012Z,100.00
2023-03-20T04:57:12.793Z,100.00
2023-03-20T04:59:39.532Z,100.00
2023-03-20T05:02:06.279Z,100.00
2023-03-20T05:04:32.960Z,100.00
2023-03-20T05:06:59.688Z,100.00
2023-03-20T05:09:26.531Z,100.00
2023-03-20T05:11:53.170Z,100.00
2023-03-20T05:14:19.919Z,100.00
2023-03-20T05:16:46.705Z,100.00
2023-03-20T05:19:13.356Z,100.00
2023-03-20T05:21:39.992Z,100.00
2023-03-20T05:24:06.997Z,100.00
2023-03-20T05:26:33.623Z,100.00
2023-03-20T05:29:00.558Z,100.00
2023-03-20T05:31:27.351Z,100.00
2023-03-20T05:33:54.144Z,100.00
2023-03-20T05:36:20.910Z,100.00
2023-03-20T05:38:47.571Z,100.00
2023-03-20T05:41:14.188Z,100.00
2023-03-20T05:43:40.823Z,100.00
2023-03-20T05:46:07.512Z,100.00
2023-03-20T05:48:35.447Z,100.00
2023-03-20T05:51:02.084Z,100.00
2023-03-20T05:53:28.743Z,100.00
2023-03-20T05:55:55.390Z,100.00
2023-03-20T05:58:22.220Z,100.00
2023-03-20T06:00:48.923Z,100.00
2023-03-20T06:03:15.629Z,100.00
2023-03-20T06:05:42.431Z,100.00
2023-03-20T06:08:09.073Z,100.00
2023-03-20T06:10:35.761Z,100.00
2023-03-20T06:13:02.812Z,100.00
2023-03-20T06:15:29.475Z,100.00
2023-03-20T06:17:56.890Z,100.00
2023-03-20T06:20:24.260Z,100.00
2023-03-20T06:22:51.243Z,100.00
2023-03-20T06:25:18.743Z,100.00
2023-03-20T06:27:49.202Z,100.00
2023-03-20T06:30:16.625Z,100.00
2023-03-20T06:32:43.697Z,100.00
2023-03-20T06:35:11.818Z,100.00
2023-03-20T06:37:38.464Z,100.00
2023-03-20T06:40:05.771Z,100.00
2023-03-20T06:42:32.428Z,100.00
2023-03-20T06:44:59.130Z,100.00
2023-03-20T06:47:25.897Z,100.00
2023-03-20T06:49:52.564Z,100.00
2023-03-20T06:52:21.681Z,100.00
2023-03-20T06:54:51.277Z,100.00
2023-03-20T06:57:19.434Z,100.00
2023-03-20T06:59:46.141Z,100.00
2023-03-20T07:02:12.843Z,100.00
2023-03-20T07:04:39.926Z,100.00
2023-03-20T07:07:06.837Z,100.00
2023-03-20T07:09:33.742Z,100.00
2023-03-20T07:12:00.641Z,100.00
2023-03-20T07:14:27.312Z,100.00
2023-03-20T07:16:54.989Z,100.00
2023-03-20T07:19:22.066Z,100.00
2023-03-20T07:21:48.981Z,100.00
2023-03-20T07:24:15.684Z,100.00
2023-03-20T07:26:42.403Z,100.00
2023-03-20T07:29:09.075Z,100.00
2023-03-20T07:31:35.871Z,100.00
2023-03-20T07:34:02.655Z,100.00
2023-03-20T07:36:29.332Z,100.00
2023-03-20T07:38:56.005Z,100.00
2023-03-20T07:41:22.690Z,100.00
2023-03-20T07:43:49.444Z,100.00
2023-03-20T07:46:16.235Z,100.00
2023-03-20T07:48:42.906Z,100.00
2023-03-20T07:51:09.791Z,100.00
2023-03-20T07:53:37.113Z,100.00
2023-03-20T07:56:04.702Z,100.00
2023-03-20T07:58:31.369Z,100.00
2023-03-20T08:00:58.846Z,100.00
2023-03-20T08:03:25.612Z,100.00
2023-03-20T08:05:52.380Z,100.00
2023-03-20T08:08:19.151Z,100.00
2023-03-20T08:10:46.018Z,100.00
2023-03-20T08:13:12.684Z,100.00
2023-03-20T08:15:39.819Z,100.00
2023-03-20T08:18:06.606Z,100.00
2023-03-20T08:20:33.358Z,100.00
2023-03-20T08:23:00.113Z,100.00
2023-03-20T08:25:26.853Z,100.00
2023-03-20T08:27:53.436Z,100.00
2023-03-20T08:30:20.247Z,100.00
2023-03-20T08:32:46.971Z,100.00
2023-03-20T08:35:29.650Z,100.00
2023-03-20T08:37:56.670Z,100.00
2023-03-20T08:40:23.421Z,100.00
2023-03-20T08:42:50.374Z,100.00
2023-03-20T08:45:17.164Z,100.00
2023-03-20T08:47:43.772Z,100.00
2023-03-20T08:50:11.373Z,100.00
2023-03-20T08:52:37.996Z,100.00
2023-03-20T08:55:05.007Z,100.00
2023-03-20T08:57:31.761Z,100.00
2023-03-20T08:59:58.365Z,100.00
2023-03-20T09:02:25.060Z,100.00
2023-03-20T09:04:51.765Z,100.00
2023-03-20T09:07:18.449Z,100.00
2023-03-20T09:09:45.356Z,100.00
2023-03-20T09:12:11.970Z,100.00
2023-03-20T09:14:38.818Z,100.00
2023-03-20T09:17:06.571Z,100.00
2023-03-20T09:19:34.266Z,100.00
2023-03-20T09:22:01.140Z,100.00
2023-03-20T09:24:29.303Z,100.00
2023-03-20T09:26:55.943Z,100.00
2023-03-20T09:29:22.651Z,100.00
2023-03-20T09:31:49.283Z,100.00
2023-03-20T09:34:16.334Z,100.00
2023-03-20T09:36:43.021Z,100.00
2023-03-20T09:39:09.740Z,100.00
2023-03-20T09:41:49.199Z,100.00
2023-03-20T09:44:41.190Z,100.00
2023-03-20T09:47:26.541Z,100.00
2023-03-20T09:49:53.139Z,100.00
2023-03-20T09:52:30.351Z,100.00
2023-03-20T09:55:02.975Z,100.00
2023-03-20T09:57:39.185Z,100.00
2023-03-20T10:00:16.748Z,100.00
2023-03-20T10:02:52.435Z,100.00
2023-03-20T10:05:24.751Z,100.00
2023-03-20T10:07:54.409Z,100.00
2023-03-20T10:10:31.920Z,100.00
2023-03-20T10:13:18.807Z,100.00
2023-03-20T10:15:55.735Z,100.00
2023-03-20T10:18:28.145Z,100.00
2023-03-20T10:21:18.694Z,100.00
2023-03-20T10:24:01.020Z,100.00
2023-03-20T10:26:30.029Z,100.00
2023-03-20T10:28:57.551Z,100.00
2023-03-20T10:31:38.809Z,100.00
2023-03-20T10:34:08.211Z,100.00
2023-03-20T10:36:39.230Z,100.00
2023-03-20T10:39:17.885Z,100.00
2023-03-20T10:41:56.500Z,100.00
2023-03-20T10:44:40.707Z,100.00
2023-03-20T10:47:11.470Z,99.14
2023-03-20T10:49:46.158Z,98.09
2023-03-20T10:52:28.319Z,97.45
2023-03-20T10:55:00.450Z,97.68
2023-03-20T10:57:32.115Z,97.19
2023-03-20T10:59:59.517Z,97.37
2023-03-20T11:02:30.379Z,97.00
2023-03-20T11:05:00.599Z,96.47
2023-03-20T11:07:28.279Z,95.73
2023-03-20T11:10:07.472Z,95.30
2023-03-20T11:12:45.799Z,95.32
2023-03-20T11:15:15.377Z,95.15
2023-03-20T11:17:42.044Z,94.77
2023-03-20T11:20:14.025Z,94.80
2023-03-20T11:22:41.748Z,94.99
2023-03-20T11:25:24.205Z,95.20
2023-03-20T11:27:51.100Z,95.02
2023-03-20T11:30:18.510Z,94.25
2023-03-20T11:32:51.257Z,93.99
2023-03-20T11:35:20.907Z,93.28
2023-03-20T11:37:52.140Z,92.90
2023-03-20T11:40:22.542Z,92.63
2023-03-20T11:42:55.497Z,91.98
2023-03-20T11:45:22.736Z,91.97
2023-03-20T11:47:55.930Z,91.87
2023-03-20T11:50:34.288Z,92.08
2023-03-20T11:53:03.815Z,91.37
2023-03-20T11:55:35.550Z,91.02
2023-03-20T11:58:06.496Z,90.50
2023-03-20T12:00:42.376Z,90.13
2023-03-20T12:03:42.072Z,90.12
2023-03-20T12:06:16.265Z,89.81
2023-03-20T12:08:48.140Z,89.26
2023-03-20T12:11:36.623Z,88.92
2023-03-20T12:14:08.207Z,88.39
2023-03-20T12:16:37.120Z,88.18
2023-03-20T12:19:18.168Z,87.91
2023-03-20T12:22:04.533Z,87.69
2023-03-20T12:24:49.660Z,87.57
2023-03-20T12:27:34.706Z,87.60
2023-03-20T12:30:11.889Z,87.20
2023-03-20T12:32:54.756Z,87.11
2023-03-20T12:35:29.322Z,86.70
2023-03-20T12:37:56.244Z,86.35
2023-03-20T12:40:33.572Z,86.28
2023-03-20T12:43:18.974Z,85.95
2023-03-20T12:46:26.320Z,85.85
2023-03-20T12:49:00.388Z,85.61
2023-03-20T12:51:59.356Z,85.29
2023-03-20T12:55:03.003Z,85.52
2023-03-20T12:57:54.729Z,85.13
2023-03-20T13:01:30.553Z,84.54
2023-03-20T13:04:20.707Z,84.06
2023-03-20T13:07:07.675Z,83.79
2023-03-20T13:09:40.497Z,83.12
2023-03-20T13:12:21.286Z,82.95
2023-03-20T13:15:21.833Z,82.89
2023-03-20T13:18:11.601Z,82.34
2023-03-20T13:20:54.321Z,81.42
2023-03-20T13:23:39.751Z,81.47
2023-03-20T13:26:17.271Z,80.92
2023-03-20T13:29:17.431Z,80.42
2023-03-20T13:31:59.224Z,80.57
2023-03-20T13:34:55.077Z,80.20
2023-03-20T13:37:38.299Z,79.87
2023-03-20T13:40:35.336Z,79.42
2023-03-20T13:43:20.705Z,78.74
2023-03-20T13:45:49.807Z,78.59
2023-03-20T13:48:36.000Z,78.37
2023-03-20T13:51:18.828Z,78.12
2023-03-20T13:53:56.140Z,77.96
2023-03-20T13:56:28.547Z,77.53
2023-03-20T13:59:01.195Z,77.50
2023-03-20T14:01:36.775Z,77.43
2023-03-20T14:04:04.924Z,77.53
2023-03-20T14:06:31.522Z,77.36
2023-03-20T14:08:59.659Z,77.10
2023-03-20T14:11:35.111Z,76.97
2023-03-20T14:14:27.302Z,76.88
2023-03-20T14:17:02.660Z,76.74
2023-03-20T14:19:29.839Z,76.55
2023-03-20T14:21:57.214Z,76.49
2023-03-20T14:24:26.703Z,76.26
2023-03-20T14:27:00.565Z,76.26
2023-03-20T14:29:29.969Z,75.93
2023-03-20T14:32:16.828Z,76.09
2023-03-20T14:34:45.730Z,75.98
2023-03-20T14:37:31.526Z,75.83
2023-03-20T14:40:04.215Z,75.82
2023-03-20T14:42:58.926Z,75.73
2023-03-20T14:45:47.563Z,75.61
2023-03-20T14:48:32.714Z,75.65
2023-03-20T14:51:24.667Z,75.66
2023-03-20T14:54:17.761Z,75.57
2023-03-20T14:56:44.445Z,75.37
2023-03-20T14:59:12.793Z,75.32
2023-03-20T15:01:39.520Z,75.22
2023-03-20T15:04:27.958Z,75.67
2023-03-20T15:06:59.541Z,75.56
2023-03-20T15:09:33.194Z,75.66
2023-03-20T15:12:04.459Z,75.67
2023-03-20T15:14:42.426Z,75.83
2023-03-20T15:17:28.015Z,75.89
2023-03-20T15:20:22.564Z,75.88
2023-03-20T15:22:58.252Z,76.10
2023-03-20T15:25:40.018Z,76.20
2023-03-20T15:28:08.626Z,76.51
2023-03-20T15:30:39.213Z,76.88
2023-03-20T15:33:07.283Z,77.54
2023-03-20T15:35:35.103Z,77.87
2023-03-20T15:38:07.548Z,78.19
2023-03-20T15:40:50.009Z,78.66
2023-03-20T15:43:25.933Z,79.28
2023-03-20T15:46:14.099Z,79.53
2023-03-20T15:48:41.847Z,79.92
2023-03-20T15:51:10.760Z,80.26
2023-03-20T15:53:39.977Z,80.62
2023-03-20T15:56:18.341Z,80.84
2023-03-20T15:58:48.577Z,81.06
2023-03-20T16:01:18.894Z,81.21
2023-03-20T16:03:46.062Z,81.29
2023-03-20T16:06:16.640Z,81.42
2023-03-20T16:08:45.663Z,81.74
2023-03-20T16:11:16.924Z,81.78
2023-03-20T16:13:48.176Z,81.85
2023-03-20T16:16:18.964Z,82.12
2023-03-20T16:18:48.116Z,82.19
2023-03-20T16:21:27.560Z,82.69
2023-03-20T16:23:57.885Z,82.91
2023-03-20T16:26:27.156Z,82.97
2023-03-20T16:29:00.138Z,83.01
2023-03-20T16:31:34.403Z,83.06
2023-03-20T16:34:05.971Z,83.33
2023-03-20T16:36:36.351Z,83.50
2023-03-20T16:39:05.704Z,83.51
2023-03-20T16:41:37.412Z,83.20
2023-03-20T16:44:19.068Z,83.14
2023-03-20T16:47:10.594Z,82.92
2023-03-20T16:49:49.818Z,82.92
2023-03-20T16:52:21.635Z,82.50
2023-03-20T16:54:48.901Z,82.31
2023-03-20T16:57:18.972Z,82.32
2023-03-20T16:59:46.264Z,82.28
2023-03-20T17:02:30.218Z,82.09
2023-03-20T17:05:01.774Z,82.10
2023-03-20T17:07:30.746Z,81.95
2023-03-20T17:10:00.368Z,82.04
2023-03-20T17:12:32.432Z,81.77
2023-03-20T17:14:58.940Z,82.03
2023-03-20T17:17:26.633Z,81.92
2023-03-20T17:19:53.378Z,81.89
2023-03-20T17:22:22.841Z,81.78
2023-03-20T17:24:50.237Z,82.08
2023-03-20T17:27:18.208Z,82.29
2023-03-20T17:29:46.180Z,82.39
2023-03-20T17:32:15.396Z,82.44
2023-03-20T17:34:43.000Z,82.77
2023-03-20T17:37:14.564Z,83.08
2023-03-20T17:39:41.685Z,83.45
2023-03-20T17:42:22.331Z,83.95
2023-03-20T17:44:49.172Z,84.27
2023-03-20T17:47:18.626Z,84.50
2023-03-20T17:49:45.856Z,84.67
2023-03-20T17:52:16.290Z,84.95
2023-03-20T17:54:43.712Z,85.28
2023-03-20T17:57:37.119Z,85.65
2023-03-20T18:00:20.120Z,85.71
2023-03-20T18:02:47.405Z,86.00
2023-03-20T18:05:14.158Z,86.21
2023-03-20T18:07:40.940Z,86.26
2023-03-20T18:10:18.588Z,86.56
2023-03-20T18:12:45.226Z,86.36
2023-03-20T18:15:12.097Z,86.90
2023-03-20T18:17:38.835Z,86.87
2023-03-20T18:20:06.075Z,87.34
2023-03-20T18:22:33.597Z,87.60
2023-03-20T18:25:00.469Z,87.58
2023-03-20T18:27:27.182Z,87.95
2023-03-20T18:29:53.852Z,88.06
2023-03-20T18:32:22.984Z,88.05
2023-03-20T18:34:49.898Z,88.38
2023-03-20T18:37:16.626Z,88.43
2023-03-20T18:39:43.259Z,88.23
2023-03-20T18:42:10.057Z,88.76
2023-03-20T18:44:37.207Z,89.10
2023-03-20T18:47:04.545Z,89.43
2023-03-20T18:49:31.780Z,89.45
2023-03-20T18:51:58.428Z,89.75
2023-03-20T18:54:25.120Z,89.80
2023-03-20T18:56:52.074Z,90.11
2023-03-20T18:59:19.556Z,90.33
2023-03-20T19:01:46.440Z,90.53
2023-03-20T19:04:13.207Z,90.87
2023-03-20T19:06:40.082Z,90.98
2023-03-20T19:09:07.413Z,90.90
2023-03-20T19:11:34.074Z,91.17
2023-03-20T19:14:00.862Z,91.68
2023-03-20T19:16:31.724Z,91.73
2023-03-20T19:19:01.423Z,91.90
2023-03-20T19:21:33.559Z,91.90
2023-03-20T19:24:03.417Z,92.21
2023-03-20T19:26:32.234Z,92.46
2023-03-20T19:29:01.390Z,92.48
2023-03-20T19:31:29.469Z,92.82
2023-03-20T19:33:56.880Z,92.92
2023-03-20T19:36:31.591Z,93.03
2023-03-20T19:38:59.790Z,93.28
2023-03-20T19:41:28.692Z,93.58
2023-03-20T19:43:56.580Z,93.47
2023-03-20T19:46:39.100Z,93.82
2023-03-20T19:49:06.858Z,93.95
2023-03-20T19:51:33.827Z,94.41
2023-03-20T19:54:00.741Z,94.58
2023-03-20T19:56:27.413Z,94.96
2023-03-20T19:58:54.832Z,94.87
2023-03-20T20:01:24.974Z,95.04
2023-03-20T20:03:57.487Z,95.03
2023-03-20T20:06:30.938Z,95.66
2023-03-20T20:08:59.013Z,95.11
2023-03-20T20:11:25.713Z,95.08
2023-03-20T20:14:09.808Z,95.31
2023-03-20T20:16:39.694Z,95.67
2023-03-20T20:19:06.793Z,95.82
2023-03-20T20:24:21.076Z,96.06
2023-03-20T20:26:54.864Z,96.27
2023-03-20T20:29:24.852Z,96.50
2023-03-20T20:31:51.665Z,96.51
2023-03-20T20:37:51.794Z,96.88
2023-03-20T20:39:53.508Z,96.88
2023-03-20T20:42:20.652Z,97.03
2023-03-20T20:44:47.802Z,97.19
2023-03-20T20:47:16.135Z,97.35
2023-03-20T20:49:46.051Z,97.64
2023-03-20T20:52:13.132Z,97.56
2023-03-20T20:54:42.120Z,97.54
2023-03-20T20:57:10.904Z,97.70
2023-03-20T20:59:41.215Z,97.78
2023-03-20T21:02:12.655Z,97.74
2023-03-20T21:04:41.260Z,97.98
2023-03-20T21:07:11.613Z,98.08
2023-03-20T21:09:39.477Z,98.12
2023-03-20T21:12:08.206Z,98.21
2023-03-20T21:14:35.530Z,98.29
2023-03-20T21:17:04.107Z,98.25
2023-03-20T21:19:34.448Z,98.36
2023-03-20T21:22:01.654Z,98.40
2023-03-20T21:24:33.915Z,98.44
2023-03-20T21:27:08.095Z,98.50
2023-03-20T21:29:35.897Z,98.67
2023-03-20T21:32:02.750Z,98.44
2023-03-20T21:34:29.491Z,98.67
2023-03-20T21:36:58.058Z,98.48
2023-03-20T21:39:28.546Z,98.33
2023-03-20T21:41:56.633Z,97.88
2023-03-20T21:45:01.139Z,97.72
2023-03-20T21:53:17.965Z,97.13
2023-03-20T22:01:53.957Z,96.72
2023-03-20T22:04:54.814Z,96.55
2023-03-20T22:07:28.812Z,96.44
2023-03-20T22:13:00.293Z,96.14
2023-03-20T22:18:31.014Z,96.06
2023-03-20T22:24:20.409Z,95.64
2023-03-20T22:35:23.024Z,95.67
2023-03-20T22:38:02.429Z,95.31
2023-03-20T22:40:57.437Z,95.41
2023-03-20T22:46:03.317Z,95.37
2023-03-20T22:48:32.492Z,95.06
2023-03-20T22:50:59.435Z,95.03
2023-03-20T22:53:26.229Z,94.86
2023-03-20T22:55:53.770Z,94.85
2023-03-20T22:58:20.555Z,94.76
2023-03-20T23:00:47.236Z,94.84
2023-03-20T23:03:25.745Z,94.78
2023-03-20T23:06:22.953Z,94.77
2023-03-20T23:08:55.545Z,94.46
2023-03-20T23:11:26.699Z,94.65
2023-03-20T23:13:53.530Z,94.40
2023-03-20T23:16:21.231Z,94.27
2023-03-20T23:18:47.952Z,94.60
2023-03-20T23:21:14.594Z,94.56
2023-03-20T23:23:41.300Z,94.47
2023-03-20T23:26:13.789Z,94.35
2023-03-20T23:28:42.443Z,94.32
2023-03-20T23:31:16.163Z,94.27
2023-03-20T23:33:43.604Z,94.06
2023-03-20T23:36:21.422Z,93.91
2023-03-20T23:38:55.550Z,93.72
2023-03-20T23:41:38.960Z,93.84
2023-03-20T23:44:09.148Z,93.75
2023-03-20T23:46:35.891Z,93.65
2023-03-20T23:49:03.282Z,93.59
2023-03-20T23:51:29.947Z,93.49
2023-03-20T23:53:56.576Z,93.60
2023-03-20T23:56:23.296Z,93.23
2023-03-20T23:58:59.454Z,93.28
